Time;durP1;ratioP1;P1;durP2;ratioP2;P2;SDS_P1;SDS_P2;PMS_P1;PMS_P2;Temp;Humidity;BMP_temperature;BMP_pressure;BME280_temperature;BME280_humidity;BME280_pressure;Samples;Min_cycle;Max_cycle;Signal;HPM_P1;HPM_P2
2022/06/10 00:01:39;;;;;;;20.52;9.65;;;;;;;;;;5047979;28;20041;-74
2022/06/10 00:04:09;;;;;;;15.63;9.07;;;;;;;;;;5047024;28;20045;-74
2022/06/10 00:06:39;;;;;;;19.13;8.82;;;;;;;;;;5046688;28;20067;-76
2022/06/10 00:09:08;;;;;;;17.95;8.77;;;;;;;;;;5047340;28;20060;-73
2022/06/10 00:11:38;;;;;;;12.02;6.88;;;;;;;;;;5047046;28;20072;-74
2022/06/10 00:14:08;;;;;;;14.23;7.22;;;;;;;;;;5047047;28;20049;-74
2022/06/10 00:16:39;;;;;;;12.75;8.10;;;;;;;;;;5046743;28;20048;-73
2022/06/10 00:19:09;;;;;;;17.13;7.43;;;;;;;;;;5046775;28;20048;-74
2022/06/10 00:21:39;;;;;;;13.45;8.13;;;;;;;;;;5047477;28;20045;-74
2022/06/10 00:24:09;;;;;;;17.13;9.77;;;;;;;;;;5047576;28;20075;-74
2022/06/10 00:26:39;;;;;;;16.70;10.88;;;;;;;;;;5046830;28;20052;-74
2022/06/10 00:29:08;;;;;;;15.57;10.13;;;;;;;;;;5046787;28;20060;-74
2022/06/10 00:31:38;;;;;;;16.23;9.13;;;;;;;;;;5047074;28;20676;-74
2022/06/10 00:34:08;;;;;;;17.20;9.55;;;;;;;;;;5047124;28;20048;-73
2022/06/10 00:36:38;;;;;;;14.80;8.20;;;;;;;;;;5046994;28;20052;-73
2022/06/10 00:39:07;;;;;;;14.82;9.93;;;;;;;;;;5046439;28;20041;-76
2022/06/10 00:41:46;;;;;;;15.90;9.70;;;;;;;;;;5045803;28;20053;-74
2022/06/10 00:44:36;;;;;;;17.23;8.80;;;;;;;;;;5046164;28;20547;-73
2022/06/10 00:47:35;;;;;;;15.73;9.15;;;;;;;;;;5046826;28;20049;-74
2022/06/10 00:50:20;;;;;;;14.60;9.05;;;;;;;;;;5046092;28;20053;-73
2022/06/10 00:52:59;;;;;;;15.30;8.68;;;;;;;;;;5047197;28;20045;-73
2022/06/10 00:55:30;;;;;;;15.30;8.82;;;;;;;;;;5046597;28;20420;-73
2022/06/10 00:58:17;;;;;;;13.98;9.35;;;;;;;;;;5046279;28;20526;-73
2022/06/10 01:00:48;;;;;;;11.20;7.93;;;;;;;;;;5045972;28;20044;-74
2022/06/10 01:03:18;;;;;;;14.07;8.38;;;;;;;;;;5046161;28;20056;-74
2022/06/10 01:05:47;;;;;;;10.05;6.65;;;;;;;;;;5045909;28;20048;-74
2022/06/10 01:08:19;;;;;;;76.85;7.28;;;;;;;;;;5044900;28;20057;-73
2022/06/10 01:11:01;;;;;;;78.07;8.77;;;;;;;;;;5046672;28;20049;-73
2022/06/10 01:13:51;;;;;;;106.25;8.75;;;;;;;;;;5046148;28;20065;-73
2022/06/10 01:16:31;;;;;;;15.93;8.88;;;;;;;;;;5045805;28;20531;-73
2022/06/10 01:19:11;;;;;;;15.97;7.47;;;;;;;;;;5046792;28;20049;-74
2022/06/10 01:22:07;;;;;;;9.38;7.45;;;;;;;;;;5046427;28;20298;-74
2022/06/10 01:25:11;;;;;;;12.48;6.57;;;;;;;;;;5044960;28;20052;-73
2022/06/10 01:28:06;;;;;;;12.32;7.90;;;;;;;;;;5046020;28;20044;-73
2022/06/10 01:31:08;;;;;;;21.00;9.85;;;;;;;;;;5046280;28;20724;-73
2022/06/10 01:33:59;;;;;;;148.40;12.07;;;;;;;;;;5046277;28;20052;-73
2022/06/10 01:36:40;;;;;;;227.57;14.02;;;;;;;;;;5055428;28;20420;-73
2022/06/10 01:39:31;;;;;;;351.38;19.42;;;;;;;;;;5054764;28;20045;-74
2022/06/10 01:42:11;;;;;;;195.93;10.90;;;;;;;;;;5055151;28;20044;-73
2022/06/10 01:45:08;;;;;;;308.27;17.73;;;;;;;;;;5051704;28;20283;-73
2022/06/10 01:47:57;;;;;;;473.67;17.45;;;;;;;;;;5041618;28;20060;-73
2022/06/10 01:51:16;;;;;;;364.23;16.60;;;;;;;;;;5040097;28;20065;-73
2022/06/10 01:54:01;;;;;;;104.25;10.70;;;;;;;;;;5002380;28;20204;-74
2022/06/10 01:56:42;;;;;;;393.98;16.63;;;;;;;;;;5045496;28;20045;-73
2022/06/10 01:59:52;;;;;;;413.70;15.35;;;;;;;;;;5044882;28;20397;-74
2022/06/10 02:02:27;;;;;;;90.05;10.55;;;;;;;;;;5043217;28;20049;-73
2022/06/10 02:05:13;;;;;;;93.93;10.82;;;;;;;;;;5049459;28;20036;-74
2022/06/10 02:07:52;;;;;;;158.13;15.32;;;;;;;;;;5049742;28;20041;-73
2022/06/10 02:10:39;;;;;;;319.38;28.30;;;;;;;;;;5048852;28;20048;-74
2022/06/10 02:13:16;;;;;;;249.18;25.52;;;;;;;;;;5049490;28;20052;-73
2022/06/10 02:15:52;;;;;;;288.80;25.92;;;;;;;;;;5050440;28;20052;-73
2022/06/10 02:18:52;;;;;;;358.05;21.20;;;;;;;;;;5050083;28;20412;-73
2022/06/10 02:21:51;;;;;;;143.35;20.63;;;;;;;;;;5049821;28;20049;-73
2022/06/10 02:24:37;;;;;;;212.40;20.95;;;;;;;;;;5042971;28;20083;-73
2022/06/10 02:27:15;;;;;;;187.65;23.25;;;;;;;;;;5049822;28;20049;-74
2022/06/10 02:30:25;;;;;;;260.60;24.45;;;;;;;;;;5050042;28;20056;-74
2022/06/10 02:32:57;;;;;;;261.00;25.65;;;;;;;;;;5008200;28;20046;-73
2022/06/10 02:35:35;;;;;;;132.70;22.92;;;;;;;;;;5045095;28;20056;-73
2022/06/10 02:38:25;;;;;;;209.88;25.60;;;;;;;;;;5049224;28;20060;-73
2022/06/10 02:41:21;;;;;;;246.07;28.10;;;;;;;;;;5049299;28;20408;-74
2022/06/10 02:44:00;;;;;;;221.93;25.58;;;;;;;;;;5028786;28;20072;-74
2022/06/10 02:46:40;;;;;;;225.35;24.80;;;;;;;;;;5049247;28;20424;-73
2022/06/10 02:49:16;;;;;;;170.02;22.50;;;;;;;;;;5049380;28;20041;-74
2022/06/10 02:51:48;;;;;;;128.60;20.85;;;;;;;;;;5049325;28;20064;-74
2022/06/10 02:54:29;;;;;;;153.98;19.52;;;;;;;;;;5049023;28;20041;-74
2022/06/10 02:57:12;;;;;;;202.75;20.23;;;;;;;;;;5049801;28;20060;-73
2022/06/10 03:02:36;;;;;;;114.57;19.15;;;;;;;;;;5049875;28;20041;-73
2022/06/10 03:05:44;;;;;;;88.53;17.30;;;;;;;;;;5049086;28;20044;-73
2022/06/10 03:08:35;;;;;;;167.18;18.17;;;;;;;;;;5043901;28;20053;-74
2022/06/10 03:11:18;;;;;;;216.63;18.35;;;;;;;;;;5049002;28;20048;-73
2022/06/10 03:14:27;;;;;;;106.47;17.05;;;;;;;;;;5047744;28;20045;-72
2022/06/10 03:17:15;;;;;;;116.78;19.20;;;;;;;;;;5028259;28;20416;-73
2022/06/10 03:19:59;;;;;;;379.23;34.85;;;;;;;;;;5048345;28;20056;-73
2022/06/10 03:22:52;;;;;;;371.33;36.00;;;;;;;;;;5048664;28;20037;-73
2022/06/10 03:25:51;;;;;;;291.85;39.15;;;;;;;;;;5049396;28;20049;-73
2022/06/10 03:28:27;;;;;;;221.07;36.30;;;;;;;;;;5035588;28;20053;-73
2022/06/10 03:31:29;;;;;;;357.40;39.55;;;;;;;;;;5048522;28;20412;-73
2022/06/10 03:34:25;;;;;;;287.00;34.92;;;;;;;;;;5048584;28;20052;-73
2022/06/10 03:37:01;;;;;;;211.90;41.38;;;;;;;;;;5048307;28;20048;-73
2022/06/10 03:39:32;;;;;;;344.05;54.00;;;;;;;;;;5048528;28;20052;-73
2022/06/10 03:42:15;;;;;;;358.95;44.00;;;;;;;;;;5046111;28;20512;-74
2022/06/10 03:44:49;;;;;;;346.67;46.60;;;;;;;;;;5048179;28;20049;-73
2022/06/10 03:47:27;;;;;;;249.52;35.22;;;;;;;;;;5048445;28;20416;-73
2022/06/10 03:50:04;;;;;;;229.80;37.50;;;;;;;;;;5049025;28;20041;-73
2022/06/10 03:52:37;;;;;;;299.88;40.28;;;;;;;;;;5048359;28;20409;-73
2022/06/10 03:55:10;;;;;;;307.17;40.75;;;;;;;;;;5048211;28;20044;-73
2022/06/10 03:57:40;;;;;;;232.27;37.60;;;;;;;;;;5046416;28;20053;-73
2022/06/10 04:00:18;;;;;;;364.23;43.97;;;;;;;;;;5046816;28;20053;-73
2022/06/10 04:02:48;;;;;;;313.27;42.10;;;;;;;;;;5046936;28;20044;-73
2022/06/10 04:05:19;;;;;;;238.48;39.58;;;;;;;;;;5048136;28;20057;-72
2022/06/10 04:07:50;;;;;;;269.88;41.00;;;;;;;;;;5047935;28;20044;-72
2022/06/10 04:10:23;;;;;;;262.02;38.40;;;;;;;;;;5047427;28;20511;-72
2022/06/10 04:12:54;;;;;;;325.40;36.40;;;;;;;;;;5047888;28;20542;-73
2022/06/10 04:15:27;;;;;;;;;;;;;;;;;;5049001;28;20400;-72
2022/06/10 04:17:57;;;;;;;126.95;31.05;;;;;;;;;;5047797;28;19931;-71
2022/06/10 04:20:36;;;;;;;362.25;38.40;;;;;;;;;;5046102;28;20056;-72
2022/06/10 04:23:07;;;;;;;410.67;42.47;;;;;;;;;;5045477;28;20045;-73
2022/06/10 04:25:39;;;;;;;330.63;39.55;;;;;;;;;;5047667;28;20045;-72
2022/06/10 04:28:10;;;;;;;278.05;30.38;;;;;;;;;;5047420;28;20519;-73
2022/06/10 04:30:44;;;;;;;283.38;31.27;;;;;;;;;;5046681;28;20044;-73
2022/06/10 04:33:15;;;;;;;159.88;29.83;;;;;;;;;;5047087;28;20049;-72
2022/06/10 04:35:47;;;;;;;207.52;31.15;;;;;;;;;;5047599;28;20044;-73
2022/06/10 04:38:21;;;;;;;246.00;30.08;;;;;;;;;;5047537;28;20071;-73
2022/06/10 04:40:52;;;;;;;269.60;30.80;;;;;;;;;;5046827;28;20045;-73
2022/06/10 04:43:22;;;;;;;260.88;30.55;;;;;;;;;;5048659;28;20392;-73
2022/06/10 04:45:55;;;;;;;244.80;32.17;;;;;;;;;;5047116;28;20044;-73
2022/06/10 04:48:25;;;;;;;162.05;27.65;;;;;;;;;;5046939;28;20056;-72
2022/06/10 04:50:55;;;;;;;162.20;24.05;;;;;;;;;;5047072;28;20053;-72
2022/06/10 04:53:25;;;;;;;297.60;27.92;;;;;;;;;;5046901;28;21160;-72
2022/06/10 04:55:55;;;;;;;157.30;25.52;;;;;;;;;;5046074;28;20059;-73
2022/06/10 04:58:25;;;;;;;77.28;22.95;;;;;;;;;;5046831;28;20053;-73
2022/06/10 05:00:56;;;;;;;54.65;21.60;;;;;;;;;;5047192;28;20066;-72
2022/06/10 05:03:26;;;;;;;315.63;29.65;;;;;;;;;;5046749;28;20053;-72
2022/06/10 05:05:56;;;;;;;108.53;23.10;;;;;;;;;;5045266;28;20083;-73
2022/06/10 05:08:25;;;;;;;197.45;26.65;;;;;;;;;;5047367;28;20061;-73
2022/06/10 05:10:55;;;;;;;251.80;28.95;;;;;;;;;;5046829;28;20060;-73
2022/06/10 05:13:28;;;;;;;203.73;27.58;;;;;;;;;;5046722;28;20073;-72
2022/06/10 05:15:58;;;;;;;239.07;28.65;;;;;;;;;;5045203;28;20053;-73
2022/06/10 05:18:28;;;;;;;254.02;26.98;;;;;;;;;;5046668;28;20045;-73
2022/06/10 05:20:58;;;;;;;298.20;26.20;;;;;;;;;;5046320;28;20503;-73
2022/06/10 05:23:28;;;;;;;255.43;26.40;;;;;;;;;;5045276;28;20048;-73
2022/06/10 05:25:58;;;;;;;300.92;31.25;;;;;;;;;;5046414;28;20048;-72
2022/06/10 05:28:31;;;;;;;296.38;28.50;;;;;;;;;;5046972;28;20045;-72
2022/06/10 05:31:01;;;;;;;416.10;30.55;;;;;;;;;;5047407;28;20389;-73
2022/06/10 05:36:19;;;;;;;288.77;31.98;;;;;;;;;;5045422;28;20041;-72
2022/06/10 05:38:50;;;;;;;283.75;28.38;;;;;;;;;;5046489;28;20049;-73
2022/06/10 05:44:09;;;;;;;304.58;28.70;;;;;;;;;;5046401;28;20327;-73
2022/06/10 05:46:39;;;;;;;;;;;;;;;;;;5047031;28;20041;-73
2022/06/10 05:49:09;;;;;;;246.40;25.50;;;;;;;;;;5046305;28;19924;-72
2022/06/10 05:51:39;;;;;;;327.08;26.02;;;;;;;;;;5046248;28;20044;-73
2022/06/10 05:54:09;;;;;;;299.77;25.48;;;;;;;;;;5045887;28;20496;-73
2022/06/10 05:56:40;;;;;;;290.27;26.92;;;;;;;;;;5047340;28;20053;-73
2022/06/10 05:59:11;;;;;;;251.25;24.83;;;;;;;;;;5046319;28;20058;-73
2022/06/10 06:01:42;;;;;;;269.00;27.52;;;;;;;;;;5046326;28;20044;-73
2022/06/10 06:04:12;;;;;;;329.73;25.42;;;;;;;;;;5045937;28;20053;-72
2022/06/10 06:06:42;;;;;;;188.27;22.17;;;;;;;;;;5046210;28;20385;-73
2022/06/10 06:09:14;;;;;;;268.60;26.40;;;;;;;;;;5045659;28;20056;-74
2022/06/10 06:11:53;;;;;;;249.82;24.52;;;;;;;;;;5044728;28;20062;-73
2022/06/10 06:14:26;;;;;;;262.27;23.50;;;;;;;;;;5046267;28;20044;-73
2022/06/10 06:16:59;;;;;;;387.83;33.38;;;;;;;;;;5046504;28;20053;-73
2022/06/10 06:19:31;;;;;;;254.63;25.90;;;;;;;;;;5046008;28;20049;-73
2022/06/10 06:22:01;;;;;;;179.00;21.58;;;;;;;;;;5046338;28;20041;-73
2022/06/10 06:24:39;;;;;;;300.77;29.13;;;;;;;;;;5047069;28;20060;-74
2022/06/10 06:27:14;;;;;;;295.90;25.52;;;;;;;;;;5046240;28;20049;-73
2022/06/10 06:29:45;;;;;;;306.60;27.52;;;;;;;;;;5067649;28;20017;-73
2022/06/10 06:32:14;;;;;;;432.35;29.38;;;;;;;;;;5071968;28;20020;-73
2022/06/10 06:34:44;;;;;;;281.17;29.23;;;;;;;;;;5071735;28;20025;-74
2022/06/10 06:37:16;;;;;;;386.00;29.52;;;;;;;;;;5071993;28;20021;-73
2022/06/10 06:39:46;;;;;;;363.48;28.30;;;;;;;;;;5071113;28;20036;-74
2022/06/10 06:42:16;;;;;;;417.52;29.73;;;;;;;;;;5046854;28;20056;-73
2022/06/10 06:44:57;;;;;;;345.33;30.20;;;;;;;;;;5044572;28;20049;-73
2022/06/10 06:47:48;;;;;;;344.48;32.15;;;;;;;;;;5047407;28;20044;-73
2022/06/10 06:50:23;;;;;;;378.20;29.90;;;;;;;;;;5050181;28;20093;-73
2022/06/10 06:52:54;;;;;;;374.30;28.65;;;;;;;;;;5049020;28;20068;-74
2022/06/10 06:55:36;;;;;;;417.67;33.08;;;;;;;;;;5049597;28;20506;-74
2022/06/10 06:58:09;;;;;;;428.10;33.67;;;;;;;;;;5050246;28;20063;-73
2022/06/10 07:00:43;;;;;;;290.40;29.60;;;;;;;;;;5049110;28;20041;-73
2022/06/10 07:03:13;;;;;;;481.38;35.55;;;;;;;;;;5048428;28;20056;-74
2022/06/10 07:05:43;;;;;;;427.38;34.92;;;;;;;;;;5048976;28;20049;-73
2022/06/10 07:08:13;;;;;;;462.02;35.63;;;;;;;;;;5048904;28;20546;-73
2022/06/10 07:10:43;;;;;;;423.55;36.55;;;;;;;;;;5048897;28;20519;-73
2022/06/10 07:13:13;;;;;;;489.23;40.10;;;;;;;;;;5048378;28;20053;-73
2022/06/10 07:15:43;;;;;;;462.02;38.40;;;;;;;;;;5048731;28;20060;-74
2022/06/10 07:18:13;;;;;;;400.05;35.67;;;;;;;;;;5048821;28;20045;-73
2022/06/10 07:20:44;;;;;;;397.15;40.50;;;;;;;;;;5049100;28;20058;-73
2022/06/10 07:23:16;;;;;;;437.50;39.55;;;;;;;;;;5048714;28;20413;-74
2022/06/10 07:25:47;;;;;;;388.80;39.00;;;;;;;;;;5048430;28;20053;-73
2022/06/10 07:28:18;;;;;;;373.38;40.70;;;;;;;;;;5048881;28;20049;-73
2022/06/10 07:30:48;;;;;;;360.08;41.72;;;;;;;;;;5048799;28;20400;-74
2022/06/10 07:33:18;;;;;;;238.00;37.57;;;;;;;;;;5048450;28;20045;-74
2022/06/10 07:35:48;;;;;;;350.13;40.40;;;;;;;;;;5048249;28;20287;-73
2022/06/10 07:38:18;;;;;;;203.65;35.13;;;;;;;;;;5048598;28;20731;-73
2022/06/10 07:43:42;;;;;;;177.18;34.97;;;;;;;;;;5048549;28;20040;-73
2022/06/10 07:46:16;;;;;;;174.88;33.55;;;;;;;;;;5049192;28;20364;-74
2022/06/10 07:48:47;;;;;;;148.32;35.83;;;;;;;;;;5048465;28;20057;-72
2022/06/10 07:51:18;;;;;;;128.18;34.67;;;;;;;;;;5046675;28;20061;-73
2022/06/10 07:53:49;;;;;;;184.13;34.08;;;;;;;;;;5048639;28;20053;-72
2022/06/10 07:56:23;;;;;;;115.53;31.15;;;;;;;;;;5048189;28;20048;-73
2022/06/10 07:58:53;;;;;;;146.73;35.70;;;;;;;;;;5047128;28;20055;-73
2022/06/10 08:01:23;;;;;;;145.32;33.33;;;;;;;;;;5048262;28;20064;-72
2022/06/10 08:03:53;;;;;;;109.82;32.95;;;;;;;;;;5047654;28;20045;-73
2022/06/10 08:06:25;;;;;;;116.80;33.00;;;;;;;;;;5047503;28;20045;-73
2022/06/10 08:08:55;;;;;;;125.43;32.42;;;;;;;;;;5048273;28;20064;-73
2022/06/10 08:11:26;;;;;;;115.43;32.30;;;;;;;;;;5047640;28;20055;-73
2022/06/10 08:13:56;;;;;;;108.72;32.75;;;;;;;;;;5047507;28;20053;-73
2022/06/10 08:16:26;;;;;;;97.93;33.00;;;;;;;;;;5047788;28;20040;-74
2022/06/10 08:18:56;;;;;;;96.53;31.85;;;;;;;;;;5046116;28;20076;-73
2022/06/10 08:24:14;;;;;;;93.03;29.38;;;;;;;;;;5047406;28;20049;-73
2022/06/10 08:26:44;;;;;;;80.20;31.20;;;;;;;;;;5047763;28;20492;-73
2022/06/10 08:29:19;;;;;;;91.60;29.88;;;;;;;;;;5047520;28;20048;-73
2022/06/10 08:31:49;;;;;;;74.57;27.48;;;;;;;;;;5047444;28;20045;-72
2022/06/10 08:34:20;;;;;;;81.43;28.42;;;;;;;;;;5047984;28;20041;-73
2022/06/10 08:36:49;;;;;;;72.93;28.13;;;;;;;;;;5047006;28;20048;-73
2022/06/10 08:39:19;;;;;;;96.55;29.77;;;;;;;;;;5047306;28;20049;-73
2022/06/10 08:42:24;;;;;;;66.35;27.20;;;;;;;;;;5047423;28;20048;-73
2022/06/10 08:44:58;;;;;;;58.78;26.15;;;;;;;;;;5047009;28;20523;-73
2022/06/10 08:47:43;;;;;;;72.80;25.02;;;;;;;;;;5047110;28;20060;-72
2022/06/10 08:50:41;;;;;;;61.70;25.58;;;;;;;;;;5047112;28;20049;-72
2022/06/10 08:53:34;;;;;;;61.65;24.33;;;;;;;;;;5046597;28;20412;-73
2022/06/10 08:56:18;;;;;;;49.28;22.33;;;;;;;;;;5047397;28;20053;-73
2022/06/10 08:59:14;;;;;;;42.33;21.90;;;;;;;;;;5047385;28;20057;-73
2022/06/10 09:01:52;;;;;;;59.03;22.23;;;;;;;;;;5045893;28;20049;-74
2022/06/10 09:04:52;;;;;;;40.17;21.83;;;;;;;;;;5046581;28;20048;-73
2022/06/10 09:07:50;;;;;;;41.97;20.45;;;;;;;;;;5046510;28;20037;-73
2022/06/10 09:11:01;;;;;;;38.63;18.10;;;;;;;;;;5046593;28;20055;-72
2022/06/10 09:14:12;;;;;;;30.35;17.05;;;;;;;;;;5033144;28;20516;-73
2022/06/10 09:16:42;;;;;;;29.40;16.38;;;;;;;;;;5004580;28;20076;-72
2022/06/10 09:19:40;;;;;;;27.95;16.33;;;;;;;;;;5041709;28;20060;-72
2022/06/10 09:22:27;;;;;;;30.63;15.25;;;;;;;;;;5046822;28;20044;-73
2022/06/10 09:25:24;;;;;;;29.83;15.40;;;;;;;;;;5046473;28;20080;-73
2022/06/10 09:27:57;;;;;;;27.17;15.25;;;;;;;;;;5046019;28;20049;-73
2022/06/10 09:30:48;;;;;;;25.48;14.25;;;;;;;;;;5046830;28;20041;-73
2022/06/10 09:33:32;;;;;;;21.65;14.35;;;;;;;;;;5045850;28;20069;-76
2022/06/10 09:36:18;;;;;;;30.90;15.43;;;;;;;;;;5047028;28;20033;-72
2022/06/10 09:40:35;;;;;;;24.25;13.98;;;;;;;;;;5046903;28;20045;-72
2022/06/10 09:42:21;;;;;;;22.73;13.50;;;;;;;;;;5045969;28;20045;-72
2022/06/10 09:45:16;;;;;;;25.38;13.27;;;;;;;;;;5046365;28;20049;-73
2022/06/10 09:48:22;;;;;;;22.00;13.10;;;;;;;;;;5046130;28;20049;-73
2022/06/10 09:51:07;;;;;;;22.58;14.18;;;;;;;;;;5011915;28;20083;-75
2022/06/10 09:53:45;;;;;;;28.35;13.70;;;;;;;;;;5044940;28;20048;-76
2022/06/10 09:56:21;;;;;;;23.48;13.82;;;;;;;;;;5046593;28;20061;-73
2022/06/10 09:59:18;;;;;;;19.60;13.90;;;;;;;;;;5046237;28;20508;-73
2022/06/10 10:02:09;;;;;;;18.65;13.00;;;;;;;;;;5046135;28;20045;-73
2022/06/10 10:04:51;;;;;;;22.80;13.63;;;;;;;;;;5046902;28;20053;-73
2022/06/10 10:07:50;;;;;;;22.95;14.07;;;;;;;;;;5046528;28;20060;-73
2022/06/10 10:10:37;;;;;;;27.27;13.32;;;;;;;;;;5046469;28;20049;-74
2022/06/10 10:13:25;;;;;;;20.63;12.55;;;;;;;;;;5046947;28;20045;-73
2022/06/10 10:15:55;;;;;;;19.42;12.52;;;;;;;;;;5044672;28;20045;-73
2022/06/10 10:18:57;;;;;;;22.08;13.40;;;;;;;;;;5028978;28;20052;-76
2022/06/10 10:21:43;;;;;;;22.10;14.00;;;;;;;;;;5046808;28;20056;-74
2022/06/10 10:24:17;;;;;;;17.55;12.07;;;;;;;;;;5050225;28;20409;-74
2022/06/10 10:26:51;;;;;;;22.05;12.60;;;;;;;;;;5049259;28;20052;-81
2022/06/10 10:29:22;;;;;;;21.50;13.43;;;;;;;;;;5049258;28;20052;-74
2022/06/10 10:32:13;;;;;;;23.38;14.40;;;;;;;;;;5047343;28;20041;-75
2022/06/10 10:34:48;;;;;;;19.07;12.27;;;;;;;;;;5049206;28;20037;-74
2022/06/10 10:37:26;;;;;;;18.05;11.05;;;;;;;;;;5050640;28;20291;-74
2022/06/10 10:40:16;;;;;;;19.05;11.32;;;;;;;;;;5049663;28;20049;-76
2022/06/10 10:42:51;;;;;;;20.65;10.85;;;;;;;;;;5049999;28;20056;-75
2022/06/10 10:45:36;;;;;;;21.20;10.35;;;;;;;;;;5032000;28;20045;-72
2022/06/10 10:48:13;;;;;;;14.73;10.68;;;;;;;;;;5048924;28;20045;-74
2022/06/10 10:50:55;;;;;;;17.55;11.32;;;;;;;;;;5049213;28;20041;-76
2022/06/10 10:53:33;;;;;;;19.77;10.25;;;;;;;;;;5048958;28;20056;-76
2022/06/10 10:56:05;;;;;;;20.50;9.57;;;;;;;;;;5049386;28;20047;-74
2022/06/10 10:58:46;;;;;;;16.38;9.75;;;;;;;;;;5048009;28;20052;-74
2022/06/10 11:01:46;;;;;;;16.67;9.77;;;;;;;;;;5049493;28;20052;-74
2022/06/10 11:04:33;;;;;;;12.98;9.15;;;;;;;;;;5049054;28;20044;-74
2022/06/10 11:07:18;;;;;;;11.32;8.73;;;;;;;;;;5048628;28;20041;-74
2022/06/10 11:10:29;;;;;;;13.23;8.80;;;;;;;;;;5049347;28;20053;-73
2022/06/10 11:13:07;;;;;;;17.60;12.02;;;;;;;;;;5027132;28;20523;-73
2022/06/10 11:15:38;;;;;;;13.43;9.27;;;;;;;;;;5048637;28;20060;-76
2022/06/10 11:18:14;;;;;;;12.25;9.18;;;;;;;;;;5047176;28;20680;-76
2022/06/10 11:20:45;;;;;;;22.70;13.77;;;;;;;;;;5047766;28;20495;-74
2022/06/10 11:23:24;;;;;;;19.50;9.07;;;;;;;;;;5046182;28;20424;-73
2022/06/10 11:26:11;;;;;;;12.80;10.10;;;;;;;;;;5047252;28;20055;-75
2022/06/10 11:28:43;;;;;;;11.73;8.88;;;;;;;;;;5047136;28;20554;-74
2022/06/10 11:31:43;;;;;;;15.38;9.48;;;;;;;;;;5048073;28;20041;-74
2022/06/10 11:34:29;;;;;;;11.00;9.10;;;;;;;;;;5047091;28;20492;-77
2022/06/10 11:36:59;;;;;;;18.42;9.63;;;;;;;;;;5047759;28;20631;-74
2022/06/10 11:39:33;;;;;;;12.60;9.50;;;;;;;;;;5047465;28;20041;-74
2022/06/10 11:42:19;;;;;;;15.52;9.13;;;;;;;;;;5048093;28;20057;-74
2022/06/10 11:44:56;;;;;;;16.77;9.13;;;;;;;;;;5048434;28;20519;-74
2022/06/10 11:47:30;;;;;;;22.08;9.13;;;;;;;;;;5048230;28;20491;-74
2022/06/10 11:50:19;;;;;;;17.95;7.43;;;;;;;;;;5048026;28;20048;-73
2022/06/10 11:53:02;;;;;;;17.70;9.05;;;;;;;;;;5047191;28;20394;-74
2022/06/10 11:55:37;;;;;;;12.07;7.20;;;;;;;;;;5046849;28;20047;-74
2022/06/10 12:01:13;;;;;;;20.27;8.95;;;;;;;;;;5047330;28;20045;-74
2022/06/10 12:03:52;;;;;;;13.65;7.20;;;;;;;;;;5048209;28;20044;-73
2022/06/10 12:06:31;;;;;;;18.30;7.32;;;;;;;;;;5047707;28;20412;-74
2022/06/10 12:09:09;;;;;;;11.95;6.55;;;;;;;;;;5047250;28;20508;-74
2022/06/10 12:12:05;;;;;;;12.13;6.85;;;;;;;;;;5047194;28;20512;-74
2022/06/10 12:14:46;;;;;;;20.88;6.50;;;;;;;;;;5047778;28;20127;-74
2022/06/10 12:17:36;;;;;;;11.90;4.63;;;;;;;;;;5046256;28;20064;-74
2022/06/10 12:20:27;;;;;;;7.00;4.38;;;;;;;;;;5047413;28;20056;-74
2022/06/10 12:23:14;;;;;;;6.15;4.05;;;;;;;;;;5046684;28;20056;-74
2022/06/10 12:26:24;;;;;;;5.00;3.70;;;;;;;;;;5047488;28;20053;-74
2022/06/10 12:29:42;;;;;;;4.47;3.58;;;;;;;;;;5032228;28;20072;-73
2022/06/10 12:32:40;;;;;;;16.00;4.28;;;;;;;;;;5035023;28;20060;-75
2022/06/10 12:35:28;;;;;;;7.45;2.83;;;;;;;;;;5047011;28;20053;-73
2022/06/10 12:38:22;;;;;;;4.43;2.30;;;;;;;;;;5047445;28;20049;-73
2022/06/10 12:41:11;;;;;;;35.65;7.53;;;;;;;;;;5047104;28;20041;-74
2022/06/10 12:43:49;;;;;;;11.05;5.90;;;;;;;;;;5047463;28;20862;-75
2022/06/10 12:46:40;;;;;;;9.00;4.22;;;;;;;;;;5046994;28;20048;-75
2022/06/10 12:49:43;;;;;;;4.45;3.70;;;;;;;;;;5046919;28;20053;-73
2022/06/10 12:52:43;;;;;;;3.65;2.20;;;;;;;;;;5047109;28;20052;-72
2022/06/10 12:55:33;;;;;;;12.98;3.55;;;;;;;;;;5046596;28;20055;-75
2022/06/10 12:58:03;;;;;;;13.65;3.80;;;;;;;;;;5044687;28;20060;-74
2022/06/10 13:00:38;;;;;;;5.75;3.72;;;;;;;;;;5046843;28;20060;-74
2022/06/10 13:03:14;;;;;;;4.45;2.92;;;;;;;;;;5046573;28;20700;-73
2022/06/10 13:05:48;;;;;;;4.72;2.22;;;;;;;;;;5046537;28;20087;-74
2022/06/10 13:08:48;;;;;;;1.55;1.40;;;;;;;;;;5046416;28;20057;-76
2022/06/10 13:11:34;;;;;;;3.67;2.92;;;;;;;;;;5044284;28;20064;-73
2022/06/10 13:14:24;;;;;;;5.18;3.30;;;;;;;;;;5047015;28;20056;-74
2022/06/10 13:17:00;;;;;;;4.47;2.97;;;;;;;;;;5046394;28;20052;-74
2022/06/10 13:19:37;;;;;;;4.03;2.25;;;;;;;;;;5046129;28;20053;-73
2022/06/10 13:22:20;;;;;;;8.00;7.03;;;;;;;;;;5046558;28;20060;-74
2022/06/10 13:24:53;;;;;;;17.20;3.95;;;;;;;;;;5046252;28;20049;-73
2022/06/10 13:27:30;;;;;;;5.63;2.75;;;;;;;;;;5046372;28;20068;-73
2022/06/10 13:30:13;;;;;;;5.75;2.80;;;;;;;;;;5046005;28;20045;-74
2022/06/10 13:33:06;;;;;;;3.63;2.95;;;;;;;;;;5045711;28;20393;-72
2022/06/10 13:35:38;;;;;;;4.82;2.80;;;;;;;;;;5046583;28;20044;-73
2022/06/10 13:38:30;;;;;;;3.33;2.85;;;;;;;;;;5046216;28;20049;-73
2022/06/10 13:43:56;;;;;;;2.60;1.65;;;;;;;;;;5045840;28;20049;-74
2022/06/10 13:46:29;;;;;;;3.00;2.08;;;;;;;;;;5046189;28;20392;-73
2022/06/10 13:49:18;;;;;;;5.63;1.60;;;;;;;;;;5045157;28;20060;-74
2022/06/10 13:51:52;;;;;;;4.40;2.25;;;;;;;;;;5045462;28;20064;-76
2022/06/10 13:54:27;;;;;;;9.13;3.30;;;;;;;;;;5046094;28;20056;-72
2022/06/10 13:56:59;;;;;;;6.43;2.50;;;;;;;;;;5047237;28;20048;-72
2022/06/10 13:59:32;;;;;;;8.30;2.92;;;;;;;;;;5050662;28;20045;-73
2022/06/10 14:02:17;;;;;;;2.13;1.73;;;;;;;;;;5048646;28;20393;-73
2022/06/10 14:04:51;;;;;;;4.38;2.33;;;;;;;;;;5049256;28;20044;-74
2022/06/10 14:07:27;;;;;;;14.48;3.17;;;;;;;;;;5049726;28;20496;-73
2022/06/10 14:09:57;;;;;;;3.47;2.35;;;;;;;;;;5048068;28;20045;-73
2022/06/10 14:12:28;;;;;;;22.35;3.40;;;;;;;;;;5049497;28;20053;-73
2022/06/10 14:15:12;;;;;;;;;;;;;;;;;;5049864;28;20041;-72
2022/06/10 14:17:54;;;;;;;12.68;2.83;;;;;;;;;;5050106;28;20311;-74
2022/06/10 14:20:31;;;;;;;3.75;1.75;;;;;;;;;;5049369;28;20516;-74
2022/06/10 14:23:20;;;;;;;8.30;3.00;;;;;;;;;;5049241;28;20056;-73
2022/06/10 14:26:06;;;;;;;3.42;2.53;;;;;;;;;;5048337;28;20504;-73
2022/06/10 14:28:37;;;;;;;47.40;4.90;;;;;;;;;;5049816;28;20500;-73
2022/06/10 14:31:19;;;;;;;7.32;2.38;;;;;;;;;;5048776;28;20045;-73
2022/06/10 14:33:50;;;;;;;4.95;2.15;;;;;;;;;;5049086;28;20033;-73
2022/06/10 14:36:24;;;;;;;5.68;1.67;;;;;;;;;;5048820;28;20049;-73
2022/06/10 14:39:25;;;;;;;3.95;2.08;;;;;;;;;;5048731;28;20049;-73
2022/06/10 14:42:22;;;;;;;3.05;1.48;;;;;;;;;;5049103;28;20618;-74
2022/06/10 14:44:55;;;;;;;3.90;1.50;;;;;;;;;;5047788;28;20550;-74
2022/06/10 14:47:29;;;;;;;11.98;3.60;;;;;;;;;;5049380;28;20060;-73
2022/06/10 14:50:20;;;;;;;6.40;1.80;;;;;;;;;;5049341;28;20700;-74
2022/06/10 14:52:52;;;;;;;1.92;1.50;;;;;;;;;;5048377;28;20049;-73
2022/06/10 14:55:32;;;;;;;2.75;1.52;;;;;;;;;;5049014;28;20041;-73
2022/06/10 14:58:10;;;;;;;18.00;4.88;;;;;;;;;;5049225;28;20056;-73
2022/06/10 15:00:41;;;;;;;6.57;1.90;;;;;;;;;;5048929;28;20045;-73
2022/06/10 15:03:18;;;;;;;11.32;3.97;;;;;;;;;;5048552;28;20051;-73
2022/06/10 15:06:17;;;;;;;5.00;1.38;;;;;;;;;;5049121;28;20044;-72
2022/06/10 15:08:51;;;;;;;9.70;5.05;;;;;;;;;;5056769;28;20049;-72
2022/06/10 15:11:23;;;;;;;9.55;6.50;;;;;;;;;;5063072;28;20032;-73
2022/06/10 15:13:54;;;;;;;9.93;7.28;;;;;;;;;;5061686;28;20337;-75
2022/06/10 15:16:25;;;;;;;13.88;8.15;;;;;;;;;;5066718;28;20047;-75
2022/06/10 15:19:14;;;;;;;10.25;6.82;;;;;;;;;;5049335;28;20045;-74
2022/06/10 15:21:50;;;;;;;10.48;8.10;;;;;;;;;;5048252;28;20045;-74
2022/06/10 15:24:24;;;;;;;8.68;7.22;;;;;;;;;;5048831;28;20048;-73
2022/06/10 15:26:56;;;;;;;10.63;7.15;;;;;;;;;;5046305;28;20045;-73
2022/06/10 15:29:28;;;;;;;9.48;6.25;;;;;;;;;;5048000;28;20045;-75
2022/06/10 15:31:58;;;;;;;9.40;5.90;;;;;;;;;;5048067;28;20037;-73
2022/06/10 15:34:29;;;;;;;9.70;6.50;;;;;;;;;;5048685;28;20060;-74
2022/06/10 15:42:36;;;;;;;7.50;5.50;;;;;;;;;;5047765;28;20045;-73
2022/06/10 15:45:11;;;;;;;9.20;4.90;;;;;;;;;;5048516;28;20060;-73
2022/06/10 15:47:41;;;;;;;8.18;5.32;;;;;;;;;;5047504;28;20049;-75
2022/06/10 15:50:11;;;;;;;6.38;4.65;;;;;;;;;;5047832;28;20611;-73
2022/06/10 15:52:41;;;;;;;6.35;4.88;;;;;;;;;;5047274;28;20059;-73
2022/06/10 15:58:26;;;;;;;6.80;4.80;;;;;;;;;;5047333;28;20501;-72
2022/06/10 16:00:57;;;;;;;7.88;5.30;;;;;;;;;;5047845;28;20048;-73